Time;durP1;ratioP1;P1;durP2;ratioP2;P2;SDS_P1;SDS_P2;PMS_P1;PMS_P2;Temp;Humidity;BMP_temperature;BMP_pressure;BME280_temperature;BME280_humidity;BME280_pressure;Samples;Min_cycle;Max_cycle;Signal;HPM_P1;HPM_P2
2021/11/22 00:00:19;;;;;;;1.08;0.82;;;18.60;64.80;;;;;;5036506;28;20046;-26
2021/11/22 00:02:45;;;;;;;1.00;0.90;;;18.50;64.50;;;;;;5029696;28;20524;-27
2021/11/22 00:05:10;;;;;;;0.75;0.75;;;18.50;64.50;;;;;;5037339;28;20037;-24
2021/11/22 00:07:36;;;;;;;0.80;0.80;;;18.50;64.80;;;;;;5036824;28;20486;-24
2021/11/22 00:10:03;;;;;;;1.45;0.65;;;18.50;64.40;;;;;;5037257;28;20471;-29
2021/11/22 00:12:30;;;;;;;0.73;0.73;;;18.50;64.50;;;;;;5037031;28;20050;-25
2021/11/22 00:14:56;;;;;;;0.73;0.73;;;18.50;64.40;;;;;;5036314;28;20056;-25
2021/11/22 00:17:22;;;;;;;0.60;0.60;;;18.60;64.60;;;;;;5036288;28;20068;-25
2021/11/22 00:19:47;;;;;;;0.68;0.45;;;18.50;64.40;;;;;;5036237;28;20041;-25
2021/11/22 00:22:13;;;;;;;0.52;0.50;;;18.50;64.50;;;;;;5037234;28;20410;-26
2021/11/22 00:24:39;;;;;;;0.60;0.57;;;18.50;64.30;;;;;;5036369;28;20517;-23
2021/11/22 00:27:04;;;;;;;0.57;0.57;;;18.40;64.40;;;;;;5034719;28;20068;-27
2021/11/22 00:29:30;;;;;;;2.03;0.70;;;18.30;64.80;;;;;;5037083;28;20056;-25
2021/11/22 00:31:56;;;;;;;0.43;0.43;;;18.50;64.30;;;;;;5036361;28;20052;-25
2021/11/22 00:34:21;;;;;;;0.50;0.50;;;18.50;64.10;;;;;;5036728;28;20041;-24
2021/11/22 00:36:47;;;;;;;0.60;0.55;;;18.50;63.80;;;;;;5036260;28;20071;-27
2021/11/22 00:39:13;;;;;;;0.40;0.40;;;18.50;64.30;;;;;;5036896;28;20131;-28
2021/11/22 00:41:39;;;;;;;0.68;0.60;;;18.50;63.80;;;;;;5036992;28;20924;-31
2021/11/22 00:44:04;;;;;;;0.50;0.40;;;18.50;64.00;;;;;;5072032;28;20045;-27
2021/11/22 00:46:30;;;;;;;0.60;0.50;;;18.50;63.70;;;;;;5056477;28;20140;-25
2021/11/22 00:48:55;;;;;;;0.30;0.30;;;18.50;63.50;;;;;;5055974;28;20051;-30
2021/11/22 00:51:21;;;;;;;1.58;0.82;;;18.50;63.50;;;;;;5056435;28;20056;-25
2021/11/22 00:53:47;;;;;;;0.50;0.50;;;18.50;63.50;;;;;;5047954;28;20469;-31
2021/11/22 00:56:16;;;;;;;1.40;0.52;;;18.60;63.30;;;;;;5036411;28;20041;-28
2021/11/22 00:58:43;;;;;;;0.60;0.50;;;18.60;63.20;;;;;;5035766;28;20042;-27
2021/11/22 01:01:08;;;;;;;0.80;0.80;;;18.60;63.40;;;;;;5034967;28;20046;-28
2021/11/22 01:03:34;;;;;;;0.90;0.65;;;18.60;63.20;;;;;;5036503;28;20053;-22
2021/11/22 01:05:59;;;;;;;0.40;0.40;;;18.60;63.30;;;;;;5035727;28;20073;-28
2021/11/22 01:08:25;;;;;;;0.40;0.40;;;18.50;63.20;;;;;;5036503;28;20049;-24
2021/11/22 01:10:50;;;;;;;0.40;0.40;;;18.50;63.20;;;;;;5035377;28;20052;-30
2021/11/22 01:13:16;;;;;;;0.40;0.40;;;18.50;63.20;;;;;;5036086;28;20037;-25
2021/11/22 01:15:42;;;;;;;0.40;0.38;;;18.50;63.10;;;;;;5035355;28;20038;-24
2021/11/22 01:18:08;;;;;;;0.25;0.25;;;18.50;63.20;;;;;;5036066;28;20080;-25
2021/11/22 01:20:33;;;;;;;0.52;0.52;;;18.50;63.10;;;;;;5035965;28;20075;-26
2021/11/22 01:23:01;;;;;;;0.30;0.30;;;18.50;63.20;;;;;;5034093;28;20413;-23
2021/11/22 01:25:26;;;;;;;0.82;0.60;;;18.50;63.20;;;;;;5035995;28;20049;-27
2021/11/22 01:27:52;;;;;;;0.38;0.35;;;18.50;63.10;;;;;;5034980;28;20045;-25
2021/11/22 01:30:18;;;;;;;0.40;0.40;;;18.50;63.20;;;;;;5035777;28;20128;-27
2021/11/22 01:32:44;;;;;;;0.40;0.40;;;18.50;63.20;;;;;;5035259;28;20075;-24
2021/11/22 01:35:09;;;;;;;1.65;0.30;;;18.40;63.10;;;;;;5035614;28;20045;-26
2021/11/22 01:37:35;;;;;;;1.08;0.30;;;18.50;63.10;;;;;;5035910;28;20038;-26
2021/11/22 01:40:01;;;;;;;0.30;0.30;;;18.50;63.00;;;;;;5034957;28;20045;-26
2021/11/22 01:42:27;;;;;;;0.28;0.20;;;18.40;63.10;;;;;;5035543;28;20128;-25
2021/11/22 01:44:52;;;;;;;0.50;0.40;;;18.40;63.10;;;;;;5053648;28;20623;-26
2021/11/22 01:47:18;;;;;;;0.38;0.38;;;18.40;63.20;;;;;;5055549;28;20060;-23
2021/11/22 01:49:43;;;;;;;0.30;0.30;;;18.40;63.10;;;;;;5054577;28;20041;-27
2021/11/22 01:52:10;;;;;;;0.73;0.40;;;18.40;63.00;;;;;;5055613;28;20087;-27
2021/11/22 01:54:36;;;;;;;0.52;0.30;;;18.40;63.00;;;;;;5048399;28;20068;-29
2021/11/22 01:57:02;;;;;;;0.52;0.40;;;18.40;62.90;;;;;;5034789;28;20038;-29
2021/11/22 01:59:27;;;;;;;0.43;0.40;;;18.40;62.90;;;;;;5035542;28;20075;-26
2021/11/22 02:01:53;;;;;;;0.38;0.38;;;18.40;63.00;;;;;;5041691;28;20124;-24
2021/11/22 02:04:19;;;;;;;1.15;0.35;;;18.40;63.00;;;;;;5035416;28;20052;-27
2021/11/22 02:06:45;;;;;;;0.35;0.32;;;18.40;62.90;;;;;;5034395;28;20041;-31
2021/11/22 02:09:10;;;;;;;0.20;0.20;;;18.40;62.90;;;;;;5035414;28;20049;-20
2021/11/22 02:11:36;;;;;;;0.20;0.20;;;18.40;62.90;;;;;;5035255;28;20049;-25
2021/11/22 02:14:03;;;;;;;0.90;0.25;;;18.40;63.00;;;;;;5034498;28;20045;-24
2021/11/22 02:16:28;;;;;;;0.20;0.20;;;18.40;63.00;;;;;;5035222;28;20094;-22
2021/11/22 02:18:55;;;;;;;0.30;0.30;;;18.40;63.00;;;;;;5034703;28;20037;-29
2021/11/22 02:21:20;;;;;;;0.43;0.25;;;18.40;63.00;;;;;;5034926;28;20046;-29
2021/11/22 02:23:46;;;;;;;0.30;0.30;;;18.30;63.00;;;;;;5028089;28;20052;-24
2021/11/22 02:26:12;;;;;;;0.40;0.40;;;18.30;63.00;;;;;;5015265;28;20446;-27
2021/11/22 02:28:37;;;;;;;0.40;0.40;;;18.30;63.10;;;;;;5015123;28;20046;-27
2021/11/22 02:31:03;;;;;;;0.30;0.28;;;18.30;63.10;;;;;;5031087;28;20045;-23
2021/11/22 02:33:28;;;;;;;0.55;0.30;;;18.30;63.10;;;;;;5034980;28;20076;-24
2021/11/22 02:35:59;;;;;;;0.25;0.25;;;18.30;63.10;;;;;;5034062;28;20041;-27
2021/11/22 02:38:26;;;;;;;0.15;0.15;;;18.30;63.00;;;;;;5035153;28;20038;-23
2021/11/22 02:40:53;;;;;;;0.30;0.28;;;18.30;63.00;;;;;;5037243;28;20044;-25
2021/11/22 02:43:18;;;;;;;0.25;0.20;;;18.30;63.10;;;;;;5052256;28;20090;-26
2021/11/22 02:45:44;;;;;;;0.32;0.30;;;18.30;63.10;;;;;;5058017;28;20044;-25
2021/11/22 02:48:10;;;;;;;0.38;0.30;;;18.30;63.10;;;;;;5021737;28;20041;-23
2021/11/22 02:50:35;;;;;;;0.30;0.20;;;18.30;63.20;;;;;;5019024;28;20096;-23
2021/11/22 02:53:01;;;;;;;0.20;0.20;;;18.20;63.20;;;;;;5018272;28;20475;-24
2021/11/22 02:55:27;;;;;;;0.68;0.30;;;18.30;63.10;;;;;;5032275;28;20097;-24
2021/11/22 02:57:52;;;;;;;0.20;0.20;;;18.30;63.20;;;;;;5037697;28;20068;-24
2021/11/22 03:00:22;;;;;;;0.40;0.32;;;18.30;63.20;;;;;;5038851;28;20053;-24
2021/11/22 03:02:48;;;;;;;0.40;0.40;;;18.30;63.20;;;;;;5038031;28;20050;-29
2021/11/22 03:05:13;;;;;;;0.45;0.40;;;18.30;63.20;;;;;;5038547;28;20072;-26
2021/11/22 03:07:39;;;;;;;0.40;0.40;;;18.30;63.20;;;;;;5038709;28;20048;-30
2021/11/22 03:10:05;;;;;;;0.40;0.20;;;18.20;63.20;;;;;;5037738;28;20041;-28
2021/11/22 03:12:31;;;;;;;0.38;0.30;;;18.20;63.30;;;;;;5038316;28;20050;-25
2021/11/22 03:14:56;;;;;;;0.30;0.30;;;18.20;63.10;;;;;;5037524;28;20124;-24
2021/11/22 03:17:22;;;;;;;1.23;0.40;;;18.20;63.00;;;;;;5038303;28;20128;-31
2021/11/22 03:19:48;;;;;;;0.22;0.20;;;18.20;63.20;;;;;;5037739;28;20047;-26
2021/11/22 03:22:13;;;;;;;0.50;0.35;;;18.20;63.20;;;;;;5038232;28;20056;-29
2021/11/22 03:24:39;;;;;;;0.30;0.28;;;18.20;63.10;;;;;;5038111;28;20045;-24
2021/11/22 03:27:05;;;;;;;1.02;0.38;;;18.20;63.10;;;;;;5037146;28;20049;-28
2021/11/22 03:29:30;;;;;;;0.40;0.20;;;18.20;63.00;;;;;;5038261;28;20445;-23
2021/11/22 03:31:57;;;;;;;0.20;0.20;;;18.20;63.10;;;;;;5037609;28;20391;-24
2021/11/22 03:34:23;;;;;;;0.50;0.30;;;18.20;63.10;;;;;;5037758;28;20037;-29
2021/11/22 03:36:48;;;;;;;0.25;0.20;;;18.20;63.20;;;;;;5037001;28;20056;-24
2021/11/22 03:39:24;;;;;;;0.40;0.30;;;18.20;63.20;;;;;;5037522;28;20045;-28
2021/11/22 03:41:50;;;;;;;0.30;0.22;;;18.20;63.20;;;;;;5036971;28;20044;-23
2021/11/22 03:44:16;;;;;;;0.32;0.30;;;18.20;63.20;;;;;;5050391;28;20044;-27
2021/11/22 03:46:49;;;;;;;0.47;0.30;;;18.20;63.20;;;;;;5057762;28;20055;-25
2021/11/22 03:49:15;;;;;;;0.32;0.30;;;18.20;63.30;;;;;;5057025;28;20045;-24
2021/11/22 03:51:40;;;;;;;0.50;0.30;;;18.20;63.20;;;;;;5057859;28;20520;-26
2021/11/22 03:54:06;;;;;;;0.68;0.38;;;18.20;63.20;;;;;;5054376;28;20108;-30
2021/11/22 03:56:32;;;;;;;0.38;0.20;;;18.20;63.30;;;;;;5037521;28;20064;-25
2021/11/22 03:58:57;;;;;;;0.60;0.30;;;18.20;63.30;;;;;;5036826;28;20095;-26
2021/11/22 04:01:23;;;;;;;0.65;0.28;;;18.20;63.40;;;;;;5037438;28;20068;-24
2021/11/22 04:03:49;;;;;;;0.20;0.20;;;18.10;63.40;;;;;;5036725;28;20046;-26
2021/11/22 04:06:15;;;;;;;0.20;0.20;;;18.10;63.50;;;;;;5037252;28;20080;-25
2021/11/22 04:08:41;;;;;;;0.47;0.20;;;18.10;63.50;;;;;;5037455;28;20150;-24
2021/11/22 04:11:07;;;;;;;0.35;0.20;;;18.10;63.50;;;;;;5028056;28;20068;-25
2021/11/22 04:13:33;;;;;;;0.30;0.30;;;18.10;63.40;;;;;;5032015;28;20045;-27
2021/11/22 04:16:00;;;;;;;0.30;0.20;;;18.10;63.50;;;;;;5036615;28;20079;-23
2021/11/22 04:18:25;;;;;;;1.23;0.20;;;18.10;63.40;;;;;;5037260;28;20045;-30
2021/11/22 04:20:51;;;;;;;0.35;0.20;;;18.10;63.50;;;;;;5036343;28;20124;-30
2021/11/22 04:23:17;;;;;;;0.13;0.10;;;18.10;63.50;;;;;;5037301;28;20087;-23
2021/11/22 04:25:42;;;;;;;0.47;0.20;;;18.10;63.50;;;;;;5037135;28;20487;-25
2021/11/22 04:28:10;;;;;;;0.32;0.20;;;18.10;63.50;;;;;;5036245;28;20045;-27
2021/11/22 04:30:36;;;;;;;0.15;0.10;;;18.10;63.60;;;;;;5036895;28;20049;-30
2021/11/22 04:33:02;;;;;;;0.30;0.30;;;18.10;63.60;;;;;;5036263;28;20620;-21
2021/11/22 04:35:27;;;;;;;0.30;0.20;;;18.10;63.60;;;;;;5027281;28;20057;-24
2021/11/22 04:37:53;;;;;;;0.30;0.20;;;18.10;63.60;;;;;;5036144;28;20414;-27
2021/11/22 04:40:19;;;;;;;0.35;0.20;;;18.10;63.60;;;;;;5036921;28;20131;-27
2021/11/22 04:42:47;;;;;;;0.30;0.25;;;18.10;63.60;;;;;;5044194;28;20040;-26
2021/11/22 04:45:21;;;;;;;0.20;0.20;;;18.00;63.50;;;;;;5056084;28;20041;-23
2021/11/22 04:47:47;;;;;;;0.20;0.20;;;18.00;63.50;;;;;;5056368;28;20494;-25
2021/11/22 04:50:13;;;;;;;0.20;0.10;;;18.10;63.60;;;;;;5055950;28;20099;-30
2021/11/22 04:52:38;;;;;;;0.30;0.30;;;18.00;63.50;;;;;;5056399;28;20045;-29
2021/11/22 04:55:04;;;;;;;0.40;0.22;;;18.00;63.50;;;;;;5045256;28;20045;-22
2021/11/22 04:57:30;;;;;;;0.45;0.40;;;18.00;63.50;;;;;;5036301;28;20099;-28
2021/11/22 04:59:56;;;;;;;0.35;0.32;;;18.00;63.50;;;;;;5036063;28;20125;-22
2021/11/22 05:02:21;;;;;;;0.77;0.30;;;18.00;63.50;;;;;;5035799;28;20079;-25
2021/11/22 05:04:47;;;;;;;0.22;0.22;;;18.00;63.60;;;;;;5036014;28;20060;-27
2021/11/22 05:07:13;;;;;;;0.20;0.20;;;18.00;63.50;;;;;;5035704;28;20060;-23
2021/11/22 05:09:38;;;;;;;0.20;0.20;;;18.00;63.50;;;;;;5036273;28;20034;-25
2021/11/22 05:12:04;;;;;;;0.10;0.10;;;18.00;63.50;;;;;;5035288;28;20045;-25
2021/11/22 05:14:30;;;;;;;0.15;0.15;;;18.00;63.50;;;;;;5036198;28;20045;-24
2021/11/22 05:16:56;;;;;;;0.20;0.20;;;18.00;63.70;;;;;;5035443;28;20461;-29
2021/11/22 05:19:22;;;;;;;0.13;0.13;;;18.00;63.50;;;;;;5035930;28;20120;-23
2021/11/22 05:21:48;;;;;;;0.45;0.20;;;18.00;63.50;;;;;;5036030;28;20049;-28
2021/11/22 05:24:13;;;;;;;0.20;0.20;;;17.90;63.50;;;;;;5035411;28;20064;-26
2021/11/22 05:26:39;;;;;;;0.50;0.28;;;18.00;63.60;;;;;;5035805;28;20049;-25
2021/11/22 05:29:06;;;;;;;0.30;0.22;;;18.00;63.50;;;;;;5035347;28;20493;-23
2021/11/22 05:31:32;;;;;;;0.20;0.20;;;18.00;63.40;;;;;;5036095;28;20128;-24
2021/11/22 05:33:57;;;;;;;0.25;0.10;;;18.00;63.50;;;;;;5035141;28;20124;-26
2021/11/22 05:36:23;;;;;;;0.30;0.30;;;18.00;63.80;;;;;;5035865;28;20081;-25
2021/11/22 05:38:49;;;;;;;0.35;0.20;;;17.90;64.10;;;;;;5035990;28;20041;-27
2021/11/22 05:41:14;;;;;;;0.30;0.20;;;17.90;64.10;;;;;;5034986;28;20072;-30
2021/11/22 05:43:40;;;;;;;0.32;0.20;;;17.80;64.40;;;;;;5042213;28;20401;-22
2021/11/22 05:46:07;;;;;;;0.20;0.17;;;17.80;65.00;;;;;;5038263;28;20065;-30
2021/11/22 05:48:33;;;;;;;1.40;0.13;;;17.80;64.80;;;;;;5040044;28;20067;-27
2021/11/22 05:51:00;;;;;;;0.20;0.20;;;17.80;65.50;;;;;;5052944;28;20053;-33
2021/11/22 05:53:27;;;;;;;0.20;0.20;;;17.80;65.10;;;;;;5062347;28;20045;-26
2021/11/22 05:55:52;;;;;;;1.55;0.17;;;17.90;64.90;;;;;;5033654;28;20137;-33
2021/11/22 05:58:19;;;;;;;0.20;0.20;;;18.00;64.80;;;;;;5029808;28;20061;-23
2021/11/22 06:00:45;;;;;;;0.60;0.20;;;17.80;64.90;;;;;;5053766;28;20053;-23
2021/11/22 06:03:10;;;;;;;0.28;0.10;;;17.80;65.00;;;;;;5053767;28;20516;-28
2021/11/22 06:05:36;;;;;;;0.40;0.25;;;17.80;64.90;;;;;;5033670;28;20052;-25
2021/11/22 06:08:02;;;;;;;1.45;0.30;;;17.80;65.20;;;;;;5042761;28;20040;-26
2021/11/22 06:10:28;;;;;;;0.17;0.10;;;17.70;65.30;;;;;;5031802;28;20484;-29
2021/11/22 06:12:53;;;;;;;0.20;0.20;;;17.80;65.20;;;;;;5032267;28;20510;-33
2021/11/22 06:15:19;;;;;;;0.30;0.30;;;17.90;65.10;;;;;;5031841;28;20498;-26
2021/11/22 06:17:45;;;;;;;0.30;0.10;;;18.00;64.90;;;;;;5033803;28;20038;-27
2021/11/22 06:20:10;;;;;;;0.30;0.30;;;18.00;64.80;;;;;;5036640;28;20107;-26
2021/11/22 06:22:36;;;;;;;10.27;0.30;;;18.00;65.00;;;;;;5031308;28;20570;-35
2021/11/22 06:25:02;;;;;;;1.88;0.20;;;17.90;65.20;;;;;;5048604;28;20049;-29
2021/11/22 06:27:28;;;;;;;0.30;0.20;;;17.90;65.10;;;;;;5033829;28;20047;-23
2021/11/22 06:29:54;;;;;;;1.70;0.30;;;17.90;65.20;;;;;;5033614;28;20058;-29
2021/11/22 06:32:20;;;;;;;1.15;0.20;;;17.90;65.60;;;;;;5033679;28;20037;-26
2021/11/22 06:34:45;;;;;;;2.17;0.40;;;17.90;65.70;;;;;;5033336;28;20046;-30
2021/11/22 06:37:11;;;;;;;0.57;0.30;;;17.90;65.70;;;;;;5030818;28;20048;-34
2021/11/22 06:39:37;;;;;;;2.00;0.30;;;17.90;65.50;;;;;;5016441;28;20055;-29
2021/11/22 06:42:03;;;;;;;1.40;0.20;;;17.90;65.40;;;;;;5013931;28;20456;-25
2021/11/22 06:44:28;;;;;;;2.72;0.30;;;17.90;65.30;;;;;;5016785;28;20113;-24
2021/11/22 06:46:54;;;;;;;0.90;0.20;;;17.90;65.10;;;;;;5034598;28;20053;-35
2021/11/22 06:49:20;;;;;;;0.90;0.22;;;18.00;65.00;;;;;;5028223;28;20601;-27
2021/11/22 06:51:46;;;;;;;1.13;0.28;;;17.90;64.80;;;;;;5033448;28;20045;-33
2021/11/22 06:54:12;;;;;;;0.50;0.38;;;17.90;64.60;;;;;;5032984;28;20091;-26
2021/11/22 06:56:38;;;;;;;0.57;0.40;;;17.90;64.60;;;;;;5034253;28;20033;-33
2021/11/22 06:59:03;;;;;;;1.85;0.20;;;18.00;64.60;;;;;;5027118;28;20046;-30
2021/11/22 07:01:29;;;;;;;0.75;0.10;;;18.00;64.50;;;;;;5042473;28;20046;-22
2021/11/22 07:03:55;;;;;;;1.48;0.30;;;18.00;64.40;;;;;;5022002;28;20180;-26
2021/11/22 07:06:21;;;;;;;3.30;0.35;;;18.00;64.40;;;;;;5030572;28;20025;-28
2021/11/22 07:08:46;;;;;;;0.88;0.20;;;17.90;64.30;;;;;;5033366;28;20120;-29
2021/11/22 07:11:12;;;;;;;1.67;0.50;;;17.90;64.30;;;;;;5033252;28;20096;-28
2021/11/22 07:13:38;;;;;;;0.32;0.20;;;18.00;64.30;;;;;;5035442;28;20029;-25
2021/11/22 07:16:04;;;;;;;5.63;0.30;;;17.90;64.30;;;;;;5022593;28;20057;-30
2021/11/22 07:18:29;;;;;;;0.47;0.25;;;17.90;64.30;;;;;;5015157;28;20030;-30
2021/11/22 07:20:55;;;;;;;0.40;0.30;;;17.90;64.30;;;;;;5020520;28;20593;-27
2021/11/22 07:23:25;;;;;;;0.22;0.20;;;17.90;64.20;;;;;;5004995;28;20046;-27
2021/11/22 07:25:51;;;;;;;0.50;0.30;;;17.90;64.20;;;;;;5008424;28;20038;-28
2021/11/22 07:28:17;;;;;;;0.55;0.20;;;17.90;64.20;;;;;;5008744;28;20049;-28
2021/11/22 07:30:43;;;;;;;0.30;0.20;;;17.90;64.30;;;;;;5006556;28;20048;-28
2021/11/22 07:33:10;;;;;;;0.32;0.15;;;17.90;64.20;;;;;;5006379;28;20078;-25
2021/11/22 07:35:36;;;;;;;0.55;0.10;;;17.90;64.20;;;;;;4997541;28;20042;-25
2021/11/22 07:38:01;;;;;;;2.17;0.20;;;17.90;64.20;;;;;;5010410;28;20045;-27
2021/11/22 07:40:27;;;;;;;1.10;0.47;;;17.90;64.20;;;;;;4996072;28;20042;-23
2021/11/22 07:42:53;;;;;;;0.38;0.15;;;17.90;64.20;;;;;;5037012;28;20045;-27
2021/11/22 07:45:20;;;;;;;1.13;0.30;;;17.90;64.10;;;;;;5046272;28;20036;-32
2021/11/22 07:47:46;;;;;;;0.22;0.20;;;17.90;64.00;;;;;;5037141;28;20050;-27
2021/11/22 07:50:11;;;;;;;0.73;0.20;;;17.90;64.00;;;;;;5036304;28;20585;-27
2021/11/22 07:52:37;;;;;;;2.15;0.30;;;17.90;64.10;;;;;;5035938;28;20065;-25
2021/11/22 07:55:03;;;;;;;0.35;0.20;;;17.90;64.00;;;;;;5028018;28;20049;-27
2021/11/22 07:57:29;;;;;;;0.95;0.40;;;17.90;64.00;;;;;;5033626;28;20103;-25
2021/11/22 07:59:55;;;;;;;1.42;0.10;;;17.80;64.00;;;;;;5037475;28;20033;-29
2021/11/22 08:02:20;;;;;;;0.20;0.20;;;17.80;64.80;;;;;;5028486;28;20057;-31
2021/11/22 08:04:46;;;;;;;1.02;0.30;;;17.80;64.10;;;;;;5023617;28;20041;-25
2021/11/22 08:07:17;;;;;;;0.80;0.22;;;17.80;64.00;;;;;;5020618;28;20133;-28
2021/11/22 08:09:54;;;;;;;0.40;0.30;;;17.80;64.00;;;;;;4997414;28;20066;-30
2021/11/22 08:14:48;;;;;;;0.40;0.20;;;17.80;64.00;;;;;;5034617;28;20068;-25
2021/11/22 08:17:14;;;;;;;0.35;0.30;;;17.80;64.00;;;;;;5026360;28;20041;-23
2021/11/22 08:19:40;;;;;;;0.75;0.20;;;17.80;64.00;;;;;;5036502;28;20037;-29
2021/11/22 08:22:06;;;;;;;0.57;0.20;;;17.80;63.90;;;;;;5044296;28;20045;-22
2021/11/22 08:24:32;;;;;;;0.88;0.43;;;17.80;63.90;;;;;;5036045;28;20042;-24
2021/11/22 08:26:57;;;;;;;0.40;0.20;;;17.80;63.90;;;;;;5036947;28;20068;-25
2021/11/22 08:29:23;;;;;;;0.40;0.30;;;17.80;63.90;;;;;;5007579;28;20049;-22
2021/11/22 08:31:49;;;;;;;0.20;0.20;;;17.70;63.90;;;;;;4997596;28;20046;-27
2021/11/22 08:34:14;;;;;;;0.20;0.10;;;17.80;63.80;;;;;;5005270;28;20056;-24
2021/11/22 08:36:40;;;;;;;0.30;0.20;;;17.80;63.70;;;;;;5007584;28;20041;-28
2021/11/22 08:39:05;;;;;;;0.38;0.10;;;17.80;63.80;;;;;;5008088;28;20068;-24
2021/11/22 08:41:31;;;;;;;0.35;0.30;;;17.80;63.80;;;;;;5012226;28;20067;-26
2021/11/22 08:43:57;;;;;;;0.15;0.15;;;17.80;63.70;;;;;;5035828;28;20067;-27
2021/11/22 08:46:23;;;;;;;0.98;0.20;;;17.80;63.80;;;;;;5051186;28;20148;-27
2021/11/22 08:48:48;;;;;;;0.13;0.10;;;17.80;63.80;;;;;;4997316;28;20042;-25
2021/11/22 08:51:14;;;;;;;0.50;0.30;;;17.80;63.80;;;;;;4996529;28;20053;-27
2021/11/22 08:53:39;;;;;;;0.40;0.32;;;17.70;63.80;;;;;;4996074;28;20373;-30
2021/11/22 08:56:05;;;;;;;0.22;0.20;;;17.80;63.80;;;;;;4997185;28;20057;-27
2021/11/22 08:58:31;;;;;;;0.68;0.15;;;17.80;63.80;;;;;;4996103;28;20050;-24
2021/11/22 09:00:56;;;;;;;0.38;0.20;;;17.80;63.80;;;;;;4997187;28;20058;-23
2021/11/22 09:03:22;;;;;;;0.57;0.30;;;17.80;63.90;;;;;;4996069;28;20684;-27
2021/11/22 09:05:47;;;;;;;0.35;0.20;;;17.80;63.80;;;;;;4996874;28;20073;-26
2021/11/22 09:08:13;;;;;;;0.20;0.13;;;17.70;64.00;;;;;;5013370;28;20120;-26
2021/11/22 09:10:39;;;;;;;0.10;0.10;;;17.60;64.20;;;;;;5015630;28;20072;-33
2021/11/22 09:13:05;;;;;;;0.17;0.13;;;17.60;64.50;;;;;;5024276;28;20084;-28
2021/11/22 09:15:31;;;;;;;0.30;0.10;;;17.70;64.30;;;;;;5033313;28;20526;-26
2021/11/22 09:17:57;;;;;;;0.25;0.25;;;17.60;64.20;;;;;;5035621;28;20037;-28
2021/11/22 09:20:23;;;;;;;0.88;0.10;;;17.60;64.10;;;;;;5035384;28;20457;-29
2021/11/22 09:22:49;;;;;;;0.32;0.10;;;17.70;64.10;;;;;;5036101;28;20041;-30
2021/11/22 09:25:15;;;;;;;1.73;0.20;;;17.70;64.00;;;;;;5035662;28;20046;-28
2021/11/22 09:27:41;;;;;;;0.43;0.40;;;17.70;64.00;;;;;;5035197;28;20037;-29
2021/11/22 09:30:07;;;;;;;0.40;0.20;;;17.80;64.40;;;;;;5035913;28;20049;-29
2021/11/22 09:32:33;;;;;;;0.40;0.15;;;17.90;63.40;;;;;;5035032;28;20076;-27
2021/11/22 09:34:58;;;;;;;0.10;0.10;;;17.90;63.30;;;;;;5050505;28;20053;-26
2021/11/22 09:37:24;;;;;;;0.20;0.20;;;17.90;63.30;;;;;;5034835;28;20140;-28
2021/11/22 09:39:51;;;;;;;0.20;0.10;;;17.90;63.20;;;;;;5035651;28;20073;-29
2021/11/22 09:42:17;;;;;;;0.28;0.10;;;18.00;63.10;;;;;;5044300;28;20060;-26
2021/11/22 09:44:42;;;;;;;0.20;0.10;;;18.00;63.00;;;;;;5054532;28;20530;-26
2021/11/22 09:47:08;;;;;;;0.30;0.10;;;18.00;63.10;;;;;;5055286;28;20056;-27
2021/11/22 09:49:34;;;;;;;0.40;0.20;;;18.00;62.90;;;;;;5069917;28;20045;-29
2021/11/22 09:51:59;;;;;;;0.57;0.10;;;18.00;62.80;;;;;;5039351;28;20083;-27
2021/11/22 09:54:25;;;;;;;0.30;0.22;;;18.00;62.50;;;;;;5034282;28;20053;-24
2021/11/22 09:56:52;;;;;;;0.35;0.20;;;18.00;63.20;;;;;;5035212;28;20061;-30
2021/11/22 09:59:18;;;;;;;0.22;0.10;;;18.00;62.40;;;;;;5035245;28;20049;-27
2021/11/22 10:01:43;;;;;;;0.30;0.15;;;18.10;62.40;;;;;;5034632;28;20045;-24
2021/11/22 10:04:11;;;;;;;0.47;0.10;;;18.10;62.30;;;;;;5015335;28;20056;-26
2021/11/22 10:06:50;;;;;;;0.47;0.10;;;18.10;62.30;;;;;;5032905;28;20038;-24
2021/11/22 10:09:34;;;;;;;0.10;0.10;;;18.10;62.30;;;;;;5035073;28;20049;-25
2021/11/22 10:12:04;;;;;;;0.43;0.17;;;18.10;62.30;;;;;;5019607;28;20043;-30
2021/11/22 10:14:53;;;;;;;0.28;0.10;;;18.20;62.30;;;;;;5033997;28;20140;-31
2021/11/22 10:17:22;;;;;;;0.30;0.30;;;18.20;62.20;;;;;;5034664;28;20041;-22
2021/11/22 10:20:03;;;;;;;0.43;0.10;;;18.20;62.30;;;;;;5034091;28;20052;-28
2021/11/22 10:22:29;;;;;;;0.82;0.10;;;18.20;62.30;;;;;;5048942;28;20070;-26
2021/11/22 10:25:17;;;;;;;0.45;0.17;;;18.20;62.20;;;;;;5039549;28;20637;-29
2021/11/22 10:27:43;;;;;;;0.60;0.20;;;18.20;62.10;;;;;;5026935;28;20056;-25
2021/11/22 10:30:26;;;;;;;0.17;0.10;;;18.20;62.20;;;;;;5034942;28;20061;-27
2021/11/22 10:32:55;;;;;;;0.10;0.10;;;18.20;62.30;;;;;;5033863;28;21127;-24
2021/11/22 10:35:22;;;;;;;0.43;0.20;;;18.20;62.40;;;;;;5033054;28;20057;-29
2021/11/22 10:37:58;;;;;;;0.65;0.20;;;18.20;62.50;;;;;;5011015;28;20042;-30
2021/11/22 10:40:25;;;;;;;0.35;0.13;;;18.20;62.40;;;;;;5029904;28;20049;-33
2021/11/22 10:42:51;;;;;;;0.25;0.10;;;18.20;62.30;;;;;;5039395;28;20068;-27
2021/11/22 10:45:29;;;;;;;0.20;0.10;;;18.30;62.50;;;;;;5054190;28;20452;-29
2021/11/22 10:48:25;;;;;;;0.28;0.10;;;18.30;62.40;;;;;;5054216;28;20532;-27
2021/11/22 10:51:10;;;;;;;0.20;0.10;;;18.30;62.30;;;;;;5020347;28;20056;-30
2021/11/22 10:53:46;;;;;;;0.35;0.20;;;18.30;62.50;;;;;;5014636;28;20050;-28
2021/11/22 10:56:26;;;;;;;0.17;0.17;;;18.30;62.40;;;;;;5032679;28;20034;-28
2021/11/22 10:58:52;;;;;;;0.30;0.10;;;18.30;62.30;;;;;;5022306;28;20390;-26
2021/11/22 11:01:52;;;;;;;0.10;0.10;;;18.30;62.30;;;;;;5022819;28;20038;-25
2021/11/22 11:04:23;;;;;;;0.10;0.10;;;18.30;62.20;;;;;;5036565;28;20029;-23
2021/11/22 11:06:50;;;;;;;0.00;0.00;;;18.30;62.20;;;;;;5037454;28;20056;-22
2021/11/22 11:09:20;;;;;;;0.30;0.10;;;18.30;62.20;;;;;;5052824;28;20036;-29
2021/11/22 11:11:47;;;;;;;0.10;0.10;;;18.30;62.10;;;;;;5045590;28;20041;-30
2021/11/22 11:14:14;;;;;;;0.52;0.13;;;18.30;62.00;;;;;;5036402;28;20491;-24
2021/11/22 11:16:40;;;;;;;0.20;0.10;;;18.30;62.00;;;;;;5035531;28;20034;-25
2021/11/22 11:19:07;;;;;;;0.30;0.10;;;18.30;62.00;;;;;;5036380;28;20107;-30
2021/11/22 11:21:39;;;;;;;0.10;0.10;;;18.30;61.90;;;;;;5035875;28;20087;-22
2021/11/22 11:24:04;;;;;;;0.38;0.10;;;18.40;61.90;;;;;;5036372;28;20053;-27
2021/11/22 11:26:30;;;;;;;0.75;0.10;;;18.40;61.80;;;;;;5035376;28;20718;-33
2021/11/22 11:28:56;;;;;;;0.10;0.10;;;18.40;61.80;;;;;;5037903;28;20486;-29
2021/11/22 11:31:22;;;;;;;0.17;0.00;;;18.40;61.80;;;;;;5038252;28;20038;-22
2021/11/22 11:33:47;;;;;;;0.47;0.00;;;18.30;61.70;;;;;;5037279;28;22667;-30
2021/11/22 11:36:34;;;;;;;0.10;0.10;;;18.40;61.70;;;;;;5037692;28;20037;-28
2021/11/22 11:39:18;;;;;;;0.43;0.10;;;18.40;61.70;;;;;;5037331;28;20545;-30
2021/11/22 11:42:15;;;;;;;0.10;0.10;;;18.40;61.70;;;;;;5031016;28;20041;-23
2021/11/22 11:44:56;;;;;;;0.17;0.08;;;18.40;61.70;;;;;;5070046;28;20510;-32
2021/11/22 11:47:33;;;;;;;0.03;0.03;;;18.40;61.70;;;;;;5057308;28;20060;-27
2021/11/22 11:50:28;;;;;;;0.15;0.10;;;18.40;62.40;;;;;;5057182;28;20052;-28
2021/11/22 11:52:59;;;;;;;0.00;0.00;;;18.40;61.50;;;;;;5040366;28;20050;-28
2021/11/22 11:55:25;;;;;;;0.20;0.10;;;18.40;61.50;;;;;;5037610;28;20049;-29
2021/11/22 11:58:14;;;;;;;0.13;0.10;;;18.40;61.50;;;;;;5036297;28;20041;-26
2021/11/22 12:01:00;;;;;;;0.10;0.10;;;18.40;61.60;;;;;;5036938;28;20045;-27
2021/11/22 12:03:28;;;;;;;0.10;0.05;;;18.40;61.60;;;;;;5036765;28;20112;-27
2021/11/22 12:05:54;;;;;;;0.32;0.10;;;18.40;61.50;;;;;;5036805;28;20080;-27
2021/11/22 12:08:29;;;;;;;0.00;0.00;;;18.50;61.60;;;;;;5048108;28;20045;-25
2021/11/22 12:10:57;;;;;;;0.00;0.00;;;18.50;61.50;;;;;;5030802;28;20053;-22
2021/11/22 12:13:23;;;;;;;0.13;0.10;;;18.50;61.60;;;;;;5015286;28;20038;-31
2021/11/22 12:15:51;;;;;;;0.15;0.10;;;18.40;61.50;;;;;;5004848;28;20049;-27
2021/11/22 12:18:33;;;;;;;0.15;0.10;;;18.40;61.50;;;;;;5014814;28;20069;-31
2021/11/22 12:21:04;;;;;;;0.10;0.05;;;18.50;61.70;;;;;;5036681;28;20095;-28
2021/11/22 12:23:40;;;;;;;0.10;0.10;;;18.50;61.40;;;;;;5036896;28;20052;-28
2021/11/22 12:26:05;;;;;;;0.08;0.03;;;18.50;61.30;;;;;;5024774;28;20042;-25
2021/11/22 12:28:31;;;;;;;0.20;0.10;;;18.50;61.10;;;;;;5033105;28;20517;-25
2021/11/22 12:31:09;;;;;;;0.00;0.00;;;18.50;61.10;;;;;;5036468;28;20052;-26
2021/11/22 12:33:56;;;;;;;0.20;0.20;;;18.50;61.00;;;;;;5036004;28;20453;-25
2021/11/22 12:36:24;;;;;;;0.20;0.10;;;18.50;61.00;;;;;;5036566;28;21103;-31
2021/11/22 12:38:50;;;;;;;0.80;0.00;;;18.50;61.10;;;;;;5035744;28;20072;-29
2021/11/22 12:41:28;;;;;;;0.98;0.00;;;18.50;61.00;;;;;;5022806;28;20118;-28
2021/11/22 12:44:15;;;;;;;0.50;0.10;;;18.50;61.00;;;;;;5055363;28;20041;-26
2021/11/22 12:47:05;;;;;;;1.25;0.20;;;18.50;61.00;;;;;;5055691;28;20128;-26
2021/11/22 12:49:40;;;;;;;0.10;0.00;;;18.50;61.10;;;;;;5056366;28;20048;-29
2021/11/22 12:52:15;;;;;;;0.25;0.08;;;18.50;61.00;;;;;;5056217;28;20070;-25